sensor_id;sensor_type;location;lat;lon;timestamp;temperature;humidity
22827;DHT22;11580;52.562;13.418;2024-01-16T00:00:34;6.00;25.10
22827;DHT22;11580;52.562;13.418;2024-01-16T00:03:01;6.10;25.20
22827;DHT22;11580;52.562;13.418;2024-01-16T00:05:29;6.10;25.80
22827;DHT22;11580;52.562;13.418;2024-01-16T00:07:57;6.10;25.20
22827;DHT22;11580;52.562;13.418;2024-01-16T00:10:26;6.10;25.30
22827;DHT22;11580;52.562;13.418;2024-01-16T00:12:54;6.10;25.80
22827;DHT22;11580;52.562;13.418;2024-01-16T00:15:21;6.10;25.40
22827;DHT22;11580;52.562;13.418;2024-01-16T00:17:48;6.10;26.00
22827;DHT22;11580;52.562;13.418;2024-01-16T00:20:17;6.10;25.50
22827;DHT22;11580;52.562;13.418;2024-01-16T00:22:44;6.10;25.50
22827;DHT22;11580;52.562;13.418;2024-01-16T00:25:11;6.10;25.60
22827;DHT22;11580;52.562;13.418;2024-01-16T00:27:39;6.10;26.30
22827;DHT22;11580;52.562;13.418;2024-01-16T00:30:09;6.10;25.80
22827;DHT22;11580;52.562;13.418;2024-01-16T00:32:37;6.10;25.80
22827;DHT22;11580;52.562;13.418;2024-01-16T00:35:05;6.10;26.40
22827;DHT22;11580;52.562;13.418;2024-01-16T00:37:33;6.10;25.80
22827;DHT22;11580;52.562;13.418;2024-01-16T00:40:00;6.10;26.20
22827;DHT22;11580;52.562;13.418;2024-01-16T00:42:29;6.10;25.60
22827;DHT22;11580;52.562;13.418;2024-01-16T00:44:58;6.00;25.60
22827;DHT22;11580;52.562;13.418;2024-01-16T00:47:26;6.00;25.70
22827;DHT22;11580;52.562;13.418;2024-01-16T00:49:53;5.90;25.70
22827;DHT22;11580;52.562;13.418;2024-01-16T00:52:20;5.80;26.40
22827;DHT22;11580;52.562;13.418;2024-01-16T00:54:47;5.70;26.00
22827;DHT22;11580;52.562;13.418;2024-01-16T00:57:16;5.60;26.70
22827;DHT22;11580;52.562;13.418;2024-01-16T00:59:45;5.50;26.50
22827;DHT22;11580;52.562;13.418;2024-01-16T01:02:14;5.50;26.70
22827;DHT22;11580;52.562;13.418;2024-01-16T01:04:41;5.40;26.40
22827;DHT22;11580;52.562;13.418;2024-01-16T01:07:08;5.30;26.40
22827;DHT22;11580;52.562;13.418;2024-01-16T01:09:36;5.30;26.40
22827;DHT22;11580;52.562;13.418;2024-01-16T01:12:03;5.20;26.30
22827;DHT22;11580;52.562;13.418;2024-01-16T01:14:31;5.10;26.20
22827;DHT22;11580;52.562;13.418;2024-01-16T01:16:58;5.00;26.40
22827;DHT22;11580;52.562;13.418;2024-01-16T01:19:27;4.90;26.60
22827;DHT22;11580;52.562;13.418;2024-01-16T01:21:54;4.90;27.00
22827;DHT22;11580;52.562;13.418;2024-01-16T01:24:21;4.80;26.90
22827;DHT22;11580;52.562;13.418;2024-01-16T01:26:48;4.90;27.20
22827;DHT22;11580;52.562;13.418;2024-01-16T01:29:15;4.80;27.30
22827;DHT22;11580;52.562;13.418;2024-01-16T01:31:45;4.80;28.00
22827;DHT22;11580;52.562;13.418;2024-01-16T01:34:14;4.70;27.80
22827;DHT22;11580;52.562;13.418;2024-01-16T01:36:42;4.70;27.90
22827;DHT22;11580;52.562;13.418;2024-01-16T01:39:10;4.80;27.80
22827;DHT22;11580;52.562;13.418;2024-01-16T01:41:38;4.80;27.60
22827;DHT22;11580;52.562;13.418;2024-01-16T01:44:06;4.80;27.60
22827;DHT22;11580;52.562;13.418;2024-01-16T01:46:35;4.70;27.50
22827;DHT22;11580;52.562;13.418;2024-01-16T01:49:03;4.80;27.80
22827;DHT22;11580;52.562;13.418;2024-01-16T01:51:30;4.80;27.60
22827;DHT22;11580;52.562;13.418;2024-01-16T01:54:00;4.70;27.50
22827;DHT22;11580;52.562;13.418;2024-01-16T01:56:28;4.70;27.70
22827;DHT22;11580;52.562;13.418;2024-01-16T01:58:57;4.70;27.70
22827;DHT22;11580;52.562;13.418;2024-01-16T02:01:26;4.70;27.90
22827;DHT22;11580;52.562;13.418;2024-01-16T02:03:55;4.70;27.80
22827;DHT22;11580;52.562;13.418;2024-01-16T02:06:24;4.70;27.90
22827;DHT22;11580;52.562;13.418;2024-01-16T02:08:52;4.70;28.00
22827;DHT22;11580;52.562;13.418;2024-01-16T02:11:21;4.70;28.10
22827;DHT22;11580;52.562;13.418;2024-01-16T02:13:48;4.70;28.10
22827;DHT22;11580;52.562;13.418;2024-01-16T02:16:19;4.70;28.00
22827;DHT22;11580;52.562;13.418;2024-01-16T02:18:47;4.60;28.20
22827;DHT22;11580;52.562;13.418;2024-01-16T02:21:17;4.70;28.00
22827;DHT22;11580;52.562;13.418;2024-01-16T02:23:48;4.70;28.30
22827;DHT22;11580;52.562;13.418;2024-01-16T02:26:16;4.60;28.30
22827;DHT22;11580;52.562;13.418;2024-01-16T02:28:44;4.60;28.30
22827;DHT22;11580;52.562;13.418;2024-01-16T02:31:12;4.60;28.90
22827;DHT22;11580;52.562;13.418;2024-01-16T02:33:39;4.60;28.30
22827;DHT22;11580;52.562;13.418;2024-01-16T02:36:07;4.60;28.40
22827;DHT22;11580;52.562;13.418;2024-01-16T02:38:34;4.60;28.30
22827;DHT22;11580;52.562;13.418;2024-01-16T02:41:03;4.60;28.30
22827;DHT22;11580;52.562;13.418;2024-01-16T02:43:31;4.60;28.10
22827;DHT22;11580;52.562;13.418;2024-01-16T02:45:58;4.60;27.80
22827;DHT22;11580;52.562;13.418;2024-01-16T02:48:25;4.60;27.60
22827;DHT22;11580;52.562;13.418;2024-01-16T02:50:53;4.50;27.40
22827;DHT22;11580;52.562;13.418;2024-01-16T02:53:20;4.40;27.40
22827;DHT22;11580;52.562;13.418;2024-01-16T02:55:47;4.40;27.30
22827;DHT22;11580;52.562;13.418;2024-01-16T02:58:16;4.30;27.20
22827;DHT22;11580;52.562;13.418;2024-01-16T03:00:43;4.20;27.20
22827;DHT22;11580;52.562;13.418;2024-01-16T03:03:11;4.20;27.30
22827;DHT22;11580;52.562;13.418;2024-01-16T03:05:38;4.20;27.40
22827;DHT22;11580;52.562;13.418;2024-01-16T03:08:05;4.00;27.30
22827;DHT22;11580;52.562;13.418;2024-01-16T03:10:33;4.00;27.30
22827;DHT22;11580;52.562;13.418;2024-01-16T03:12:59;3.90;27.30
22827;DHT22;11580;52.562;13.418;2024-01-16T03:15:28;3.90;27.50
22827;DHT22;11580;52.562;13.418;2024-01-16T03:17:56;3.90;27.70
22827;DHT22;11580;52.562;13.418;2024-01-16T03:20:23;3.80;28.30
22827;DHT22;11580;52.562;13.418;2024-01-16T03:22:50;3.80;28.50
22827;DHT22;11580;52.562;13.418;2024-01-16T03:25:18;3.80;28.60
22827;DHT22;11580;52.562;13.418;2024-01-16T03:27:47;3.80;28.10
22827;DHT22;11580;52.562;13.418;2024-01-16T03:30:14;3.80;28.70
22827;DHT22;11580;52.562;13.418;2024-01-16T03:32:43;3.80;28.20
22827;DHT22;11580;52.562;13.418;2024-01-16T03:35:10;3.90;28.40
22827;DHT22;11580;52.562;13.418;2024-01-16T03:37:38;3.90;28.50
22827;DHT22;11580;52.562;13.418;2024-01-16T03:40:06;4.00;28.70
22827;DHT22;11580;52.562;13.418;2024-01-16T03:42:34;4.00;28.80
22827;DHT22;11580;52.562;13.418;2024-01-16T03:45:01;4.00;29.30
22827;DHT22;11580;52.562;13.418;2024-01-16T03:47:28;4.10;28.90
22827;DHT22;11580;52.562;13.418;2024-01-16T03:49:56;4.10;28.90
22827;DHT22;11580;52.562;13.418;2024-01-16T03:52:24;4.20;28.80
22827;DHT22;11580;52.562;13.418;2024-01-16T03:54:51;4.20;28.80
22827;DHT22;11580;52.562;13.418;2024-01-16T03:57:19;4.30;28.80
22827;DHT22;11580;52.562;13.418;2024-01-16T03:59:46;4.30;28.80
22827;DHT22;11580;52.562;13.418;2024-01-16T04:02:13;4.40;28.80
22827;DHT22;11580;52.562;13.418;2024-01-16T04:04:40;4.40;28.70
22827;DHT22;11580;52.562;13.418;2024-01-16T04:07:09;4.40;28.70
22827;DHT22;11580;52.562;13.418;2024-01-16T04:09:36;4.40;28.80
22827;DHT22;11580;52.562;13.418;2024-01-16T04:12:03;4.60;28.80
22827;DHT22;11580;52.562;13.418;2024-01-16T04:14:33;4.50;28.70
22827;DHT22;11580;52.562;13.418;2024-01-16T04:17:01;4.60;28.60
22827;DHT22;11580;52.562;13.418;2024-01-16T04:19:29;4.70;28.60
22827;DHT22;11580;52.562;13.418;2024-01-16T04:21:59;4.60;28.50
22827;DHT22;11580;52.562;13.418;2024-01-16T04:24:28;4.60;28.40
22827;DHT22;11580;52.562;13.418;2024-01-16T04:26:55;4.70;28.40
22827;DHT22;11580;52.562;13.418;2024-01-16T04:29:23;4.50;28.30
22827;DHT22;11580;52.562;13.418;2024-01-16T04:31:50;4.60;28.50
22827;DHT22;11580;52.562;13.418;2024-01-16T04:34:17;4.50;28.50
22827;DHT22;11580;52.562;13.418;2024-01-16T04:36:44;4.50;28.50
22827;DHT22;11580;52.562;13.418;2024-01-16T04:39:13;4.60;29.10
22827;DHT22;11580;52.562;13.418;2024-01-16T04:41:42;4.60;28.60
22827;DHT22;11580;52.562;13.418;2024-01-16T04:44:09;4.60;28.70
22827;DHT22;11580;52.562;13.418;2024-01-16T04:46:36;4.60;28.70
22827;DHT22;11580;52.562;13.418;2024-01-16T04:49:03;4.70;28.90
22827;DHT22;11580;52.562;13.418;2024-01-16T04:51:31;4.70;28.90
22827;DHT22;11580;52.562;13.418;2024-01-16T04:53:58;4.70;28.90
22827;DHT22;11580;52.562;13.418;2024-01-16T04:56:25;4.70;28.90
22827;DHT22;11580;52.562;13.418;2024-01-16T04:58:53;4.70;28.70
22827;DHT22;11580;52.562;13.418;2024-01-16T05:01:21;4.70;28.60
22827;DHT22;11580;52.562;13.418;2024-01-16T05:03:48;4.90;28.70
22827;DHT22;11580;52.562;13.418;2024-01-16T05:06:15;4.80;28.60
22827;DHT22;11580;52.562;13.418;2024-01-16T05:08:43;4.80;28.50
22827;DHT22;11580;52.562;13.418;2024-01-16T05:11:10;4.80;28.50
22827;DHT22;11580;52.562;13.418;2024-01-16T05:13:37;4.80;28.40
22827;DHT22;11580;52.562;13.418;2024-01-16T05:16:06;4.80;28.30
22827;DHT22;11580;52.562;13.418;2024-01-16T05:18:33;4.80;28.30
22827;DHT22;11580;52.562;13.418;2024-01-16T05:21:00;4.70;28.20
22827;DHT22;11580;52.562;13.418;2024-01-16T05:23:28;4.70;28.20
22827;DHT22;11580;52.562;13.418;2024-01-16T05:25:55;4.70;28.20
22827;DHT22;11580;52.562;13.418;2024-01-16T05:28:22;4.70;28.20
22827;DHT22;11580;52.562;13.418;2024-01-16T05:30:50;4.70;28.80
22827;DHT22;11580;52.562;13.418;2024-01-16T05:33:18;4.60;28.30
22827;DHT22;11580;52.562;13.418;2024-01-16T05:35:45;4.60;28.30
22827;DHT22;11580;52.562;13.418;2024-01-16T05:38:12;4.60;28.30
22827;DHT22;11580;52.562;13.418;2024-01-16T05:40:40;4.70;28.40
22827;DHT22;11580;52.562;13.418;2024-01-16T05:43:07;4.60;28.20
22827;DHT22;11580;52.562;13.418;2024-01-16T05:45:34;4.60;28.10
22827;DHT22;11580;52.562;13.418;2024-01-16T05:48:01;4.60;27.90
22827;DHT22;11580;52.562;13.418;2024-01-16T05:50:30;4.50;27.70
22827;DHT22;11580;52.562;13.418;2024-01-16T05:52:58;4.60;27.90
22827;DHT22;11580;52.562;13.418;2024-01-16T05:55:25;4.40;27.70
22827;DHT22;11580;52.562;13.418;2024-01-16T05:57:52;4.40;27.70
22827;DHT22;11580;52.562;13.418;2024-01-16T06:00:19;4.40;28.30
22827;DHT22;11580;52.562;13.418;2024-01-16T06:02:49;4.30;27.70
22827;DHT22;11580;52.562;13.418;2024-01-16T06:05:16;4.30;27.70
22827;DHT22;11580;52.562;13.418;2024-01-16T06:07:44;4.20;27.60
22827;DHT22;11580;52.562;13.418;2024-01-16T06:10:12;4.20;27.60
22827;DHT22;11580;52.562;13.418;2024-01-16T06:12:40;4.10;27.70
22827;DHT22;11580;52.562;13.418;2024-01-16T06:15:07;4.00;28.20
22827;DHT22;11580;52.562;13.418;2024-01-16T06:17:37;4.00;27.80
22827;DHT22;11580;52.562;13.418;2024-01-16T06:20:05;3.90;28.50
22827;DHT22;11580;52.562;13.418;2024-01-16T06:22:34;3.90;28.20
22827;DHT22;11580;52.562;13.418;2024-01-16T06:25:03;3.90;28.40
22827;DHT22;11580;52.562;13.418;2024-01-16T06:27:31;3.90;28.40
22827;DHT22;11580;52.562;13.418;2024-01-16T06:29:58;3.90;28.50
22827;DHT22;11580;52.562;13.418;2024-01-16T06:32:25;3.90;28.50
22827;DHT22;11580;52.562;13.418;2024-01-16T06:34:52;3.90;28.50
22827;DHT22;11580;52.562;13.418;2024-01-16T06:37:19;3.90;29.20
22827;DHT22;11580;52.562;13.418;2024-01-16T06:39:47;4.00;28.70
22827;DHT22;11580;52.562;13.418;2024-01-16T06:42:15;4.00;28.70
22827;DHT22;11580;52.562;13.418;2024-01-16T06:44:42;4.10;29.40
22827;DHT22;11580;52.562;13.418;2024-01-16T06:47:09;4.10;28.80
22827;DHT22;11580;52.562;13.418;2024-01-16T06:49:37;4.10;28.70
22827;DHT22;11580;52.562;13.418;2024-01-16T06:52:04;4.10;28.60
22827;DHT22;11580;52.562;13.418;2024-01-16T06:54:31;4.20;28.60
22827;DHT22;11580;52.562;13.418;2024-01-16T06:56:58;4.20;29.20
22827;DHT22;11580;52.562;13.418;2024-01-16T06:59:27;4.20;28.60
22827;DHT22;11580;52.562;13.418;2024-01-16T07:01:54;4.20;28.60
22827;DHT22;11580;52.562;13.418;2024-01-16T07:04:21;4.20;29.10
22827;DHT22;11580;52.562;13.418;2024-01-16T07:06:49;4.20;28.60
22827;DHT22;11580;52.562;13.418;2024-01-16T07:09:16;4.30;28.70
22827;DHT22;11580;52.562;13.418;2024-01-16T07:11:46;4.30;28.70
22827;DHT22;11580;52.562;13.418;2024-01-16T07:14:13;4.30;28.70
22827;DHT22;11580;52.562;13.418;2024-01-16T07:16:41;4.30;28.80
22827;DHT22;11580;52.562;13.418;2024-01-16T07:19:09;4.40;28.90
22827;DHT22;11580;52.562;13.418;2024-01-16T07:21:37;4.40;28.90
22827;DHT22;11580;52.562;13.418;2024-01-16T07:24:05;4.40;28.90
22827;DHT22;11580;52.562;13.418;2024-01-16T07:26:33;4.40;28.80
22827;DHT22;11580;52.562;13.418;2024-01-16T07:29:00;4.50;28.80
22827;DHT22;11580;52.562;13.418;2024-01-16T07:31:28;4.50;28.70
22827;DHT22;11580;52.562;13.418;2024-01-16T07:33:56;4.50;28.60
22827;DHT22;11580;52.562;13.418;2024-01-16T07:36:23;4.50;28.60
22827;DHT22;11580;52.562;13.418;2024-01-16T07:38:50;4.50;28.70
22827;DHT22;11580;52.562;13.418;2024-01-16T07:41:18;4.60;28.90
22827;DHT22;11580;52.562;13.418;2024-01-16T07:43:45;4.60;28.90
22827;DHT22;11580;52.562;13.418;2024-01-16T07:46:12;4.70;28.90
22827;DHT22;11580;52.562;13.418;2024-01-16T07:48:39;4.70;29.00
22827;DHT22;11580;52.562;13.418;2024-01-16T07:51:08;4.70;29.00
22827;DHT22;11580;52.562;13.418;2024-01-16T07:53:35;4.80;28.90
22827;DHT22;11580;52.562;13.418;2024-01-16T07:56:02;4.90;29.00
22827;DHT22;11580;52.562;13.418;2024-01-16T07:58:30;4.90;28.90
22827;DHT22;11580;52.562;13.418;2024-01-16T08:00:57;5.00;29.00
22827;DHT22;11580;52.562;13.418;2024-01-16T08:03:24;5.00;28.90
22827;DHT22;11580;52.562;13.418;2024-01-16T08:05:52;5.10;29.00
22827;DHT22;11580;52.562;13.418;2024-01-16T08:08:20;5.10;29.00
22827;DHT22;11580;52.562;13.418;2024-01-16T08:10:47;5.10;28.80
22827;DHT22;11580;52.562;13.418;2024-01-16T08:13:15;5.20;28.90
22827;DHT22;11580;52.562;13.418;2024-01-16T08:15:42;5.20;28.90
22827;DHT22;11580;52.562;13.418;2024-01-16T08:18:09;5.30;29.00
22827;DHT22;11580;52.562;13.418;2024-01-16T08:20:36;5.30;29.00
22827;DHT22;11580;52.562;13.418;2024-01-16T08:23:03;5.40;29.10
22827;DHT22;11580;52.562;13.418;2024-01-16T08:25:32;5.40;29.10
22827;DHT22;11580;52.562;13.418;2024-01-16T08:27:59;5.50;29.60
22827;DHT22;11580;52.562;13.418;2024-01-16T08:30:26;5.50;29.60
22827;DHT22;11580;52.562;13.418;2024-01-16T08:32:54;5.50;29.40
22827;DHT22;11580;52.562;13.418;2024-01-16T08:35:21;5.60;29.50
22827;DHT22;11580;52.562;13.418;2024-01-16T08:37:50;5.60;29.50
22827;DHT22;11580;52.562;13.418;2024-01-16T08:40:17;5.60;28.90
22827;DHT22;11580;52.562;13.418;2024-01-16T08:42:45;5.70;29.00
22827;DHT22;11580;52.562;13.418;2024-01-16T08:45:17;5.70;28.90
22827;DHT22;11580;52.562;13.418;2024-01-16T08:47:44;5.80;29.00
22827;DHT22;11580;52.562;13.418;2024-01-16T08:50:11;5.80;29.10
22827;DHT22;11580;52.562;13.418;2024-01-16T08:52:38;5.90;29.20
22827;DHT22;11580;52.562;13.418;2024-01-16T08:55:06;5.90;29.20
22827;DHT22;11580;52.562;13.418;2024-01-16T08:57:34;6.00;29.20
22827;DHT22;11580;52.562;13.418;2024-01-16T09:00:04;6.00;29.20
22827;DHT22;11580;52.562;13.418;2024-01-16T09:02:34;6.10;28.90
22827;DHT22;11580;52.562;13.418;2024-01-16T09:05:01;6.20;29.10
22827;DHT22;11580;52.562;13.418;2024-01-16T09:07:30;6.20;29.00
22827;DHT22;11580;52.562;13.418;2024-01-16T09:09:57;6.30;29.10
22827;DHT22;11580;52.562;13.418;2024-01-16T09:12:25;6.30;29.00
22827;DHT22;11580;52.562;13.418;2024-01-16T09:14:52;6.40;29.00
22827;DHT22;11580;52.562;13.418;2024-01-16T09:17:21;6.40;28.90
22827;DHT22;11580;52.562;13.418;2024-01-16T09:19:48;6.50;28.80
22827;DHT22;11580;52.562;13.418;2024-01-16T09:22:15;6.50;28.90
22827;DHT22;11580;52.562;13.418;2024-01-16T09:24:42;6.60;28.90
22827;DHT22;11580;52.562;13.418;2024-01-16T09:27:10;6.60;28.80
22827;DHT22;11580;52.562;13.418;2024-01-16T09:29:38;6.70;28.80
22827;DHT22;11580;52.562;13.418;2024-01-16T09:32:05;6.70;28.60
22827;DHT22;11580;52.562;13.418;2024-01-16T09:34:34;6.70;28.50
22827;DHT22;11580;52.562;13.418;2024-01-16T09:37:01;6.80;28.90
22827;DHT22;11580;52.562;13.418;2024-01-16T09:39:29;6.80;29.00
22827;DHT22;11580;52.562;13.418;2024-01-16T09:41:59;6.80;28.50
22827;DHT22;11580;52.562;13.418;2024-01-16T09:44:27;6.80;28.30
22827;DHT22;11580;52.562;13.418;2024-01-16T09:46:55;6.80;28.60
22827;DHT22;11580;52.562;13.418;2024-01-16T09:49:24;6.80;28.60
22827;DHT22;11580;52.562;13.418;2024-01-16T09:51:53;6.90;28.70
22827;DHT22;11580;52.562;13.418;2024-01-16T09:54:21;6.90;28.50
22827;DHT22;11580;52.562;13.418;2024-01-16T09:56:51;6.90;28.60
22827;DHT22;11580;52.562;13.418;2024-01-16T09:59:21;6.90;28.40
22827;DHT22;11580;52.562;13.418;2024-01-16T10:01:52;7.00;28.70
22827;DHT22;11580;52.562;13.418;2024-01-16T10:04:22;7.00;28.70
22827;DHT22;11580;52.562;13.418;2024-01-16T10:06:50;7.00;28.90
22827;DHT22;11580;52.562;13.418;2024-01-16T10:09:20;7.10;29.50
22827;DHT22;11580;52.562;13.418;2024-01-16T10:11:48;7.20;29.70
22827;DHT22;11580;52.562;13.418;2024-01-16T10:14:17;7.30;29.00
22827;DHT22;11580;52.562;13.418;2024-01-16T10:16:58;7.40;29.10
22827;DHT22;11580;52.562;13.418;2024-01-16T10:19:28;7.50;27.70
22827;DHT22;11580;52.562;13.418;2024-01-16T10:22:03;7.50;28.80
22827;DHT22;11580;52.562;13.418;2024-01-16T10:24:30;7.60;27.80
22827;DHT22;11580;52.562;13.418;2024-01-16T10:27:00;7.70;28.70
22827;DHT22;11580;52.562;13.418;2024-01-16T10:29:29;7.70;28.60
22827;DHT22;11580;52.562;13.418;2024-01-16T10:31:57;7.80;28.60
22827;DHT22;11580;52.562;13.418;2024-01-16T10:34:24;7.90;28.60
22827;DHT22;11580;52.562;13.418;2024-01-16T10:36:58;7.90;28.50
22827;DHT22;11580;52.562;13.418;2024-01-16T10:39:27;8.00;28.40
22827;DHT22;11580;52.562;13.418;2024-01-16T10:41:56;8.10;28.10
22827;DHT22;11580;52.562;13.418;2024-01-16T10:44:24;8.10;28.10
22827;DHT22;11580;52.562;13.418;2024-01-16T10:47:09;8.20;28.30
22827;DHT22;11580;52.562;13.418;2024-01-16T10:49:38;8.30;27.10
22827;DHT22;11580;52.562;13.418;2024-01-16T10:52:10;8.30;28.20
22827;DHT22;11580;52.562;13.418;2024-01-16T10:54:41;8.40;27.60
22827;DHT22;11580;52.562;13.418;2024-01-16T10:57:11;8.50;27.70
22827;DHT22;11580;52.562;13.418;2024-01-16T10:59:45;8.50;28.30
22827;DHT22;11580;52.562;13.418;2024-01-16T11:02:19;8.50;27.50
22827;DHT22;11580;52.562;13.418;2024-01-16T11:04:50;8.60;27.70
22827;DHT22;11580;52.562;13.418;2024-01-16T11:07:21;8.60;27.70
22827;DHT22;11580;52.562;13.418;2024-01-16T11:09:51;8.70;27.60
22827;DHT22;11580;52.562;13.418;2024-01-16T11:12:20;8.70;27.30
22827;DHT22;11580;52.562;13.418;2024-01-16T11:14:49;8.70;27.40
22827;DHT22;11580;52.562;13.418;2024-01-16T11:17:19;8.70;27.10
22827;DHT22;11580;52.562;13.418;2024-01-16T11:19:47;8.80;27.30
22827;DHT22;11580;52.562;13.418;2024-01-16T11:22:16;8.70;27.30
22827;DHT22;11580;52.562;13.418;2024-01-16T11:24:45;8.70;27.00
22827;DHT22;11580;52.562;13.418;2024-01-16T11:27:34;8.70;27.10
22827;DHT22;11580;52.562;13.418;2024-01-16T11:30:02;8.70;26.90
22827;DHT22;11580;52.562;13.418;2024-01-16T11:32:36;8.70;27.00
22827;DHT22;11580;52.562;13.418;2024-01-16T11:35:06;8.60;26.20
22827;DHT22;11580;52.562;13.418;2024-01-16T11:37:35;8.70;27.10
22827;DHT22;11580;52.562;13.418;2024-01-16T11:40:22;8.60;27.10
22827;DHT22;11580;52.562;13.418;2024-01-16T11:42:54;8.60;26.10
22827;DHT22;11580;52.562;13.418;2024-01-16T11:45:49;8.60;27.20
22827;DHT22;11580;52.562;13.418;2024-01-16T11:48:17;8.60;26.60
22827;DHT22;11580;52.562;13.418;2024-01-16T11:50:46;8.50;27.40
22827;DHT22;11580;52.562;13.418;2024-01-16T11:53:33;8.50;27.40
22827;DHT22;11580;52.562;13.418;2024-01-16T11:56:15;8.50;26.60
22827;DHT22;11580;52.562;13.418;2024-01-16T11:59:08;8.50;26.80
22827;DHT22;11580;52.562;13.418;2024-01-16T12:01:45;8.40;26.80
22827;DHT22;11580;52.562;13.418;2024-01-16T12:04:18;8.40;27.50
22827;DHT22;11580;52.562;13.418;2024-01-16T12:06:57;8.40;28.20
22827;DHT22;11580;52.562;13.418;2024-01-16T12:09:26;8.30;27.80
22827;DHT22;11580;52.562;13.418;2024-01-16T12:11:58;8.30;27.70
22827;DHT22;11580;52.562;13.418;2024-01-16T12:14:29;8.20;27.70
22827;DHT22;11580;52.562;13.418;2024-01-16T12:17:08;8.20;28.10
22827;DHT22;11580;52.562;13.418;2024-01-16T12:19:38;8.20;28.10
22827;DHT22;11580;52.562;13.418;2024-01-16T12:22:08;8.10;28.10
22827;DHT22;11580;52.562;13.418;2024-01-16T12:24:36;8.10;28.10
22827;DHT22;11580;52.562;13.418;2024-01-16T12:27:04;8.10;28.80
22827;DHT22;11580;52.562;13.418;2024-01-16T12:29:33;8.10;28.30
22827;DHT22;11580;52.562;13.418;2024-01-16T12:32:07;8.10;28.50
22827;DHT22;11580;52.562;13.418;2024-01-16T12:34:38;8.10;28.30
22827;DHT22;11580;52.562;13.418;2024-01-16T12:37:12;8.10;28.60
22827;DHT22;11580;52.562;13.418;2024-01-16T12:39:39;8.10;29.20
22827;DHT22;11580;52.562;13.418;2024-01-16T12:42:07;7.90;28.30
22827;DHT22;11580;52.562;13.418;2024-01-16T12:44:38;8.20;28.20
22827;DHT22;11580;52.562;13.418;2024-01-16T12:47:06;8.20;28.10
22827;DHT22;11580;52.562;13.418;2024-01-16T12:49:40;8.20;28.80
22827;DHT22;11580;52.562;13.418;2024-01-16T12:52:19;8.20;28.10
22827;DHT22;11580;52.562;13.418;2024-01-16T12:54:59;8.20;28.10
22827;DHT22;11580;52.562;13.418;2024-01-16T12:57:28;8.20;28.10
22827;DHT22;11580;52.562;13.418;2024-01-16T12:59:57;8.20;28.90
22827;DHT22;11580;52.562;13.418;2024-01-16T13:02:26;8.20;28.20
22827;DHT22;11580;52.562;13.418;2024-01-16T13:04:56;8.20;28.10
22827;DHT22;11580;52.562;13.418;2024-01-16T13:07:25;8.20;28.10
22827;DHT22;11580;52.562;13.418;2024-01-16T13:10:06;8.20;28.10
22827;DHT22;11580;52.562;13.418;2024-01-16T13:12:34;8.20;27.50
22827;DHT22;11580;52.562;13.418;2024-01-16T13:15:04;8.20;28.10
22827;DHT22;11580;52.562;13.418;2024-01-16T13:17:33;8.20;28.20
22827;DHT22;11580;52.562;13.418;2024-01-16T13:20:01;8.20;28.20
22827;DHT22;11580;52.562;13.418;2024-01-16T13:22:29;8.30;28.20
22827;DHT22;11580;52.562;13.418;2024-01-16T13:24:56;8.30;28.20
22827;DHT22;11580;52.562;13.418;2024-01-16T13:27:23;8.30;28.20
22827;DHT22;11580;52.562;13.418;2024-01-16T13:29:52;8.30;28.20
22827;DHT22;11580;52.562;13.418;2024-01-16T13:32:21;8.10;28.10
22827;DHT22;11580;52.562;13.418;2024-01-16T13:34:48;8.40;28.10
22827;DHT22;11580;52.562;13.418;2024-01-16T13:37:19;8.30;28.20
22827;DHT22;11580;52.562;13.418;2024-01-16T13:39:48;8.40;27.70
22827;DHT22;11580;52.562;13.418;2024-01-16T13:42:16;8.40;28.20
22827;DHT22;11580;52.562;13.418;2024-01-16T13:44:45;8.30;28.00
22827;DHT22;11580;52.562;13.418;2024-01-16T13:47:15;8.30;27.80
22827;DHT22;11580;52.562;13.418;2024-01-16T13:49:45;8.30;27.70
22827;DHT22;11580;52.562;13.418;2024-01-16T13:52:12;8.30;27.50
22827;DHT22;11580;52.562;13.418;2024-01-16T13:54:40;8.30;27.60
22827;DHT22;11580;52.562;13.418;2024-01-16T13:57:07;8.30;27.60
22827;DHT22;11580;52.562;13.418;2024-01-16T13:59:35;8.20;28.00
22827;DHT22;11580;52.562;13.418;2024-01-16T14:02:03;8.20;27.40
22827;DHT22;11580;52.562;13.418;2024-01-16T14:04:30;8.20;27.20
22827;DHT22;11580;52.562;13.418;2024-01-16T14:07:00;8.20;27.10
22827;DHT22;11580;52.562;13.418;2024-01-16T14:09:32;8.10;26.80
22827;DHT22;11580;52.562;13.418;2024-01-16T14:12:01;8.10;26.70
22827;DHT22;11580;52.562;13.418;2024-01-16T14:14:28;8.00;26.80
22827;DHT22;11580;52.562;13.418;2024-01-16T14:16:56;7.90;26.80
22827;DHT22;11580;52.562;13.418;2024-01-16T14:19:23;7.80;26.80
22827;DHT22;11580;52.562;13.418;2024-01-16T14:21:52;7.70;27.00
22827;DHT22;11580;52.562;13.418;2024-01-16T14:24:21;7.70;27.70
22827;DHT22;11580;52.562;13.418;2024-01-16T14:26:48;7.60;27.00
22827;DHT22;11580;52.562;13.418;2024-01-16T14:29:15;7.50;27.20
22827;DHT22;11580;52.562;13.418;2024-01-16T14:31:42;7.50;27.40
22827;DHT22;11580;52.562;13.418;2024-01-16T14:34:10;7.50;27.60
22827;DHT22;11580;52.562;13.418;2024-01-16T14:36:39;7.50;27.70
22827;DHT22;11580;52.562;13.418;2024-01-16T14:39:07;7.50;27.70
22827;DHT22;11580;52.562;13.418;2024-01-16T14:41:40;7.50;27.80
22827;DHT22;11580;52.562;13.418;2024-01-16T14:44:09;7.40;27.60
22827;DHT22;11580;52.562;13.418;2024-01-16T14:46:36;7.40;27.60
22827;DHT22;11580;52.562;13.418;2024-01-16T14:49:03;7.40;27.70
22827;DHT22;11580;52.562;13.418;2024-01-16T14:51:31;7.40;27.60
22827;DHT22;11580;52.562;13.418;2024-01-16T14:53:59;7.40;27.60
22827;DHT22;11580;52.562;13.418;2024-01-16T14:56:27;7.30;27.60
22827;DHT22;11580;52.562;13.418;2024-01-16T14:58:57;7.30;27.70
22827;DHT22;11580;52.562;13.418;2024-01-16T15:01:24;7.30;27.80
22827;DHT22;11580;52.562;13.418;2024-01-16T15:03:52;7.30;28.40
22827;DHT22;11580;52.562;13.418;2024-01-16T15:06:21;7.30;27.90
22827;DHT22;11580;52.562;13.418;2024-01-16T15:08:51;7.20;27.60
22827;DHT22;11580;52.562;13.418;2024-01-16T15:11:18;7.20;27.80
22827;DHT22;11580;52.562;13.418;2024-01-16T15:13:45;7.30;27.80
22827;DHT22;11580;52.562;13.418;2024-01-16T15:16:16;7.20;27.60
22827;DHT22;11580;52.562;13.418;2024-01-16T15:18:44;7.20;27.50
22827;DHT22;11580;52.562;13.418;2024-01-16T15:21:11;7.20;27.50
22827;DHT22;11580;52.562;13.418;2024-01-16T15:23:38;7.20;27.50
22827;DHT22;11580;52.562;13.418;2024-01-16T15:26:05;7.10;27.50
22827;DHT22;11580;52.562;13.418;2024-01-16T15:28:33;7.10;27.50
22827;DHT22;11580;52.562;13.418;2024-01-16T15:31:00;7.10;27.50
22827;DHT22;11580;52.562;13.418;2024-01-16T15:33:33;7.00;27.50
22827;DHT22;11580;52.562;13.418;2024-01-16T15:36:01;7.00;27.50
22827;DHT22;11580;52.562;13.418;2024-01-16T15:38:28;7.00;28.20